createdAt,value
2022-09-24T00:01:40.762Z,4.00
2022-09-24T00:04:13.068Z,2.00
2022-09-24T00:06:47.243Z,4.82
2022-09-24T00:09:19.459Z,1.63
2022-09-24T00:11:46.377Z,2.97
2022-09-24T00:14:13.938Z,4.70
2022-09-24T00:16:42.521Z,4.00
2022-09-24T00:19:11.379Z,5.88
2022-09-24T00:21:39.614Z,2.72
2022-09-24T00:24:32.290Z,4.18
2022-09-24T00:27:00.471Z,2.45
2022-09-24T00:29:27.239Z,2.53
2022-09-24T00:31:54.333Z,3.20
2022-09-24T00:34:21.801Z,2.85
2022-09-24T00:36:48.763Z,2.90
2022-09-24T00:39:16.651Z,2.90
2022-09-24T00:41:47.784Z,2.30
2022-09-24T00:44:45.599Z,3.33
2022-09-24T00:47:41.954Z,7.53
2022-09-24T00:50:17.216Z,3.10
2022-09-24T00:52:58.450Z,3.25
2022-09-24T00:55:26.979Z,2.10
2022-09-24T00:57:59.268Z,3.40
2022-09-24T01:00:26.557Z,4.32
2022-09-24T01:03:11.326Z,2.25
2022-09-24T01:05:39.221Z,4.65
2022-09-24T01:08:14.893Z,2.67
2022-09-24T01:11:02.895Z,2.97
2022-09-24T01:13:51.646Z,2.17
2022-09-24T01:16:53.452Z,2.17
2022-09-24T01:19:47.193Z,2.80
2022-09-24T01:22:53.846Z,4.03
2022-09-24T01:25:39.432Z,3.85
2022-09-24T01:29:05.985Z,3.00
2022-09-24T01:31:46.812Z,2.92
2022-09-24T01:34:22.799Z,2.72
2022-09-24T01:36:52.843Z,3.00
2022-09-24T01:39:21.677Z,4.05
2022-09-24T01:41:50.057Z,2.95
2022-09-24T01:44:18.374Z,3.30
2022-09-24T01:46:45.622Z,5.00
2022-09-24T01:49:12.531Z,6.82
2022-09-24T01:51:49.570Z,3.57
2022-09-24T01:54:30.820Z,2.85
2022-09-24T01:57:12.391Z,3.13
2022-09-24T02:00:06.234Z,3.17
2022-09-24T02:03:18.879Z,5.72
2022-09-24T02:05:54.959Z,2.80
2022-09-24T02:08:26.386Z,4.65
2022-09-24T02:11:11.234Z,2.15
2022-09-24T02:14:00.879Z,6.50
2022-09-24T02:16:35.156Z,2.22
2022-09-24T02:19:10.734Z,2.80
2022-09-24T02:21:41.098Z,2.67
2022-09-24T02:24:16.534Z,2.75
2022-09-24T02:26:43.450Z,2.25
2022-09-24T02:29:10.408Z,2.83
2022-09-24T02:31:49.649Z,6.05
2022-09-24T02:34:23.446Z,3.08
2022-09-24T02:37:02.488Z,2.30
2022-09-24T02:39:29.730Z,2.28
2022-09-24T02:41:58.308Z,2.40
2022-09-24T02:44:25.483Z,2.95
2022-09-24T02:46:52.314Z,3.05
2022-09-24T02:49:19.175Z,1.50
2022-09-24T02:51:45.987Z,3.03
2022-09-24T02:54:13.063Z,2.53
2022-09-24T02:56:40.655Z,4.15
2022-09-24T02:59:08.584Z,3.45
2022-09-24T03:01:36.202Z,2.30
2022-09-24T03:06:30.500Z,3.33
2022-09-24T03:08:57.612Z,2.38
2022-09-24T03:11:24.966Z,3.38
2022-09-24T03:13:51.826Z,2.47
2022-09-24T03:16:19.138Z,3.17
2022-09-24T03:18:47.999Z,2.67
2022-09-24T03:21:19.997Z,3.10
2022-09-24T03:23:47.428Z,4.45
2022-09-24T03:26:14.793Z,3.50
2022-09-24T03:28:42.715Z,5.13
2022-09-24T03:31:09.917Z,3.08
2022-09-24T03:33:42.234Z,3.13
2022-09-24T03:36:17.784Z,3.33
2022-09-24T03:38:46.323Z,4.32
2022-09-24T03:41:14.912Z,2.00
2022-09-24T03:43:42.350Z,3.20
2022-09-24T03:46:12.485Z,2.95
2022-09-24T03:48:41.316Z,4.00
2022-09-24T03:51:16.047Z,2.90
2022-09-24T03:53:42.895Z,3.58
2022-09-24T03:56:09.822Z,5.30
2022-09-24T03:58:39.063Z,4.63
2022-09-24T04:01:12.918Z,2.35
2022-09-24T04:03:40.563Z,2.33
2022-09-24T04:06:08.180Z,2.60
2022-09-24T04:11:02.137Z,2.00
2022-09-24T04:13:29.032Z,4.75
2022-09-24T04:15:56.008Z,3.05
2022-09-24T04:18:22.815Z,1.73
2022-09-24T04:20:49.683Z,4.23
2022-09-24T04:23:16.563Z,2.60
2022-09-24T04:25:44.053Z,2.17
2022-09-24T04:28:12.336Z,3.50
2022-09-24T04:30:39.722Z,4.40
2022-09-24T04:33:07.440Z,2.47
2022-09-24T04:38:05.078Z,2.60
2022-09-24T04:40:32.642Z,1.17
2022-09-24T04:42:59.552Z,2.67
2022-09-24T04:45:26.884Z,1.97
2022-09-24T04:47:57.792Z,2.50
2022-09-24T04:50:32.724Z,1.70
2022-09-24T04:53:00.685Z,2.03
2022-09-24T04:55:32.071Z,1.60
2022-09-24T04:57:59.161Z,1.27
2022-09-24T05:00:25.936Z,2.10
2022-09-24T05:03:03.556Z,1.37
2022-09-24T05:05:32.118Z,3.13
2022-09-24T05:07:59.579Z,1.40
2022-09-24T05:10:26.953Z,1.95
2022-09-24T05:12:54.531Z,1.23
2022-09-24T05:15:21.999Z,2.33
2022-09-24T05:17:48.834Z,0.90
2022-09-24T05:20:16.863Z,1.40
2022-09-24T05:22:46.701Z,4.13
2022-09-24T05:25:15.998Z,3.00
2022-09-24T05:27:53.754Z,2.30
2022-09-24T05:30:24.462Z,1.75
2022-09-24T05:32:54.309Z,4.95
2022-09-24T05:35:23.502Z,8.85
2022-09-24T05:37:53.156Z,34.83
2022-09-24T05:40:38.620Z,31.58
2022-09-24T05:43:05.639Z,56.55
2022-09-24T05:45:33.019Z,34.45
2022-09-24T05:48:00.201Z,29.58
2022-09-24T05:50:27.631Z,38.17
2022-09-24T05:52:54.909Z,28.80
2022-09-24T05:55:21.914Z,20.90
2022-09-24T05:57:49.175Z,13.30
2022-09-24T06:00:16.433Z,9.02
2022-09-24T06:02:43.422Z,5.28
2022-09-24T06:05:11.455Z,4.40
2022-09-24T06:07:38.812Z,3.15
2022-09-24T06:10:07.378Z,3.38
2022-09-24T06:12:34.955Z,6.63
2022-09-24T06:15:02.836Z,4.28
2022-09-24T06:17:29.767Z,5.22
2022-09-24T06:19:57.944Z,2.30
2022-09-24T06:22:28.407Z,1.38
2022-09-24T06:24:55.867Z,1.88
2022-09-24T06:27:22.772Z,1.50
2022-09-24T06:29:49.521Z,1.50
2022-09-24T06:32:16.294Z,1.10
2022-09-24T06:34:43.238Z,2.03
2022-09-24T06:37:10.021Z,1.63
2022-09-24T06:39:36.801Z,1.20
2022-09-24T06:42:03.794Z,2.53
2022-09-24T06:44:31.086Z,1.90
2022-09-24T06:46:58.132Z,1.15
2022-09-24T06:49:26.325Z,1.20
2022-09-24T06:51:54.867Z,1.17
2022-09-24T06:54:22.431Z,1.10
2022-09-24T06:56:50.234Z,1.20
2022-09-24T06:59:17.000Z,0.85
2022-09-24T07:01:43.879Z,1.10
2022-09-24T07:04:11.547Z,4.10
2022-09-24T07:06:56.848Z,1.58
2022-09-24T07:09:23.735Z,1.25
2022-09-24T07:11:50.517Z,1.92
2022-09-24T07:14:17.266Z,1.30
2022-09-24T07:16:44.168Z,1.73
2022-09-24T07:19:11.020Z,2.03
2022-09-24T07:21:38.720Z,1.50
2022-09-24T07:26:32.462Z,1.13
2022-09-24T07:28:59.299Z,1.33
2022-09-24T07:31:27.128Z,2.43
2022-09-24T07:33:54.035Z,1.27
2022-09-24T07:36:20.827Z,1.60
2022-09-24T07:38:47.725Z,1.70
2022-09-24T07:41:14.561Z,1.40
2022-09-24T07:43:42.112Z,1.13
2022-09-24T07:46:09.271Z,0.95
2022-09-24T07:48:36.247Z,2.13
2022-09-24T07:51:03.155Z,1.08
2022-09-24T07:53:29.910Z,1.13
2022-09-24T07:55:59.778Z,1.90
2022-09-24T07:58:26.986Z,3.58
2022-09-24T08:00:56.990Z,3.50
2022-09-24T08:03:23.759Z,3.25
2022-09-24T08:05:50.990Z,4.53
2022-09-24T08:08:20.550Z,2.13
2022-09-24T08:10:47.443Z,2.35
2022-09-24T08:13:14.765Z,2.47
2022-09-24T08:15:41.865Z,1.38
2022-09-24T08:18:09.638Z,1.70
2022-09-24T08:20:38.324Z,0.93
2022-09-24T08:23:10.027Z,1.52
2022-09-24T08:25:36.932Z,1.40
2022-09-24T08:28:06.076Z,1.55
2022-09-24T08:30:34.090Z,1.20
2022-09-24T08:33:01.422Z,1.08
2022-09-24T08:35:28.187Z,1.33
2022-09-24T08:37:55.060Z,1.70
2022-09-24T08:40:28.490Z,2.13
2022-09-24T08:43:13.132Z,1.52
2022-09-24T08:46:08.439Z,1.35
2022-09-24T08:48:40.330Z,1.17
2022-09-24T08:51:14.801Z,1.38
2022-09-24T08:53:51.640Z,2.92
2022-09-24T08:56:25.992Z,2.75
2022-09-24T08:59:03.284Z,1.35
2022-09-24T09:02:13.424Z,0.85
2022-09-24T09:07:16.335Z,1.02
2022-09-24T09:10:08.017Z,1.25
2022-09-24T09:12:43.625Z,1.17
2022-09-24T09:15:29.567Z,1.00
2022-09-24T09:18:01.457Z,1.05
2022-09-24T09:20:49.771Z,1.17
2022-09-24T09:23:47.324Z,1.42
2022-09-24T09:26:20.155Z,1.02
2022-09-24T09:28:48.612Z,1.25
2022-09-24T09:31:43.301Z,2.15
2022-09-24T09:34:49.413Z,2.63
2022-09-24T09:37:29.621Z,1.23
2022-09-24T09:40:13.344Z,0.98
2022-09-24T09:42:40.442Z,0.98
2022-09-24T09:45:33.549Z,1.60
2022-09-24T09:48:04.513Z,2.45
2022-09-24T09:50:38.360Z,1.15
2022-09-24T09:53:05.901Z,1.63
2022-09-24T09:55:37.565Z,1.60
2022-09-24T09:58:16.116Z,1.63
2022-09-24T10:00:52.642Z,2.30
2022-09-24T10:03:33.753Z,2.90
2022-09-24T10:06:07.450Z,2.47
2022-09-24T10:08:34.334Z,1.33
2022-09-24T10:11:03.381Z,3.00
2022-09-24T10:13:33.349Z,2.45
2022-09-24T10:16:05.408Z,3.60
2022-09-24T10:18:50.276Z,2.35
2022-09-24T10:21:36.953Z,1.92
2022-09-24T10:24:12.247Z,1.58
2022-09-24T10:26:45.808Z,1.17
2022-09-24T10:32:29.686Z,1.63
2022-09-24T10:35:02.373Z,1.73
2022-09-24T10:37:30.558Z,2.08
2022-09-24T10:40:00.797Z,1.92
2022-09-24T10:42:30.296Z,1.40
2022-09-24T10:45:01.458Z,1.50
2022-09-24T10:47:44.094Z,1.30
2022-09-24T10:50:44.126Z,2.00
2022-09-24T10:53:30.119Z,1.15
2022-09-24T10:56:26.483Z,2.15
2022-09-24T10:59:36.945Z,1.42
2022-09-24T11:02:40.491Z,1.92
2022-09-24T11:05:24.853Z,1.10
2022-09-24T11:08:07.970Z,1.17
2022-09-24T11:10:52.671Z,1.73
2022-09-24T11:13:41.288Z,1.63
2022-09-24T11:16:48.038Z,1.30
2022-09-24T11:19:47.743Z,3.30
2022-09-24T11:23:00.986Z,2.67
2022-09-24T11:26:01.407Z,1.27
2022-09-24T11:29:17.566Z,1.75
2022-09-24T11:32:02.881Z,2.38
2022-09-24T11:35:27.240Z,2.28
2022-09-24T11:38:20.054Z,1.65
2022-09-24T11:41:04.570Z,1.50
2022-09-24T11:44:00.806Z,3.55
2022-09-24T11:46:34.282Z,1.55
2022-09-24T11:49:33.038Z,1.73
2022-09-24T11:52:21.301Z,1.40
2022-09-24T11:55:20.050Z,1.63
2022-09-24T11:58:13.666Z,1.23
2022-09-24T12:00:57.362Z,1.45
2022-09-24T12:03:34.379Z,1.88
2022-09-24T12:06:21.542Z,1.73
2022-09-24T12:09:17.891Z,1.83
2022-09-24T12:11:55.055Z,1.40
2022-09-24T12:14:47.810Z,1.08
2022-09-24T12:17:26.220Z,1.92
2022-09-24T12:20:01.371Z,1.20
2022-09-24T12:22:31.346Z,2.13
2022-09-24T12:25:00.681Z,1.42
2022-09-24T12:27:36.187Z,1.70
2022-09-24T12:30:52.561Z,1.33
2022-09-24T12:33:55.153Z,2.05
2022-09-24T12:36:37.704Z,1.02
2022-09-24T12:39:10.975Z,1.33
2022-09-24T12:41:44.681Z,1.35
2022-09-24T12:44:11.551Z,1.40
2022-09-24T12:46:54.554Z,1.58
2022-09-24T12:49:27.306Z,1.17
2022-09-24T12:52:25.899Z,2.85
2022-09-24T12:55:00.435Z,1.00
2022-09-24T12:57:36.007Z,1.52
2022-09-24T13:00:36.510Z,1.08
2022-09-24T13:03:06.215Z,1.70
2022-09-24T13:05:40.744Z,1.27
2022-09-24T13:08:22.810Z,1.13
2022-09-24T13:11:00.596Z,2.55
2022-09-24T13:13:32.795Z,1.15
2022-09-24T13:16:20.485Z,1.00
2022-09-24T13:18:58.382Z,1.97
2022-09-24T13:21:28.771Z,2.22
2022-09-24T13:23:57.836Z,1.35
2022-09-24T13:26:35.064Z,1.85
2022-09-24T13:29:23.551Z,0.87
2022-09-24T13:32:03.166Z,1.75
2022-09-24T13:34:32.350Z,2.40
2022-09-24T13:37:21.719Z,1.40
2022-09-24T13:40:07.429Z,1.15
2022-09-24T13:42:36.646Z,2.50
2022-09-24T13:45:11.519Z,1.42
2022-09-24T13:47:51.691Z,1.05
2022-09-24T13:50:34.499Z,1.58
2022-09-24T13:53:07.435Z,1.23
2022-09-24T13:55:44.004Z,1.58
2022-09-24T13:58:32.731Z,1.15
2022-09-24T14:03:36.517Z,1.73
2022-09-24T14:06:13.382Z,3.35
2022-09-24T14:08:46.843Z,1.40
2022-09-24T14:11:26.452Z,1.83
2022-09-24T14:13:56.244Z,1.73
2022-09-24T14:16:26.846Z,1.30
2022-09-24T14:19:05.945Z,2.30
2022-09-24T14:21:48.456Z,1.42
2022-09-24T14:24:48.567Z,2.22
2022-09-24T14:27:21.770Z,1.77
2022-09-24T14:29:59.946Z,1.85
2022-09-24T14:35:08.413Z,2.10
2022-09-24T14:37:40.684Z,1.27
2022-09-24T14:40:18.899Z,2.08
2022-09-24T14:43:02.080Z,1.02
2022-09-24T14:45:37.752Z,1.92
2022-09-24T14:48:28.722Z,1.40
2022-09-24T14:50:55.888Z,1.55
2022-09-24T14:53:22.623Z,1.75
2022-09-24T14:55:50.163Z,1.85
2022-09-24T15:01:14.770Z,1.30
2022-09-24T15:03:47.487Z,1.30
2022-09-24T15:06:27.793Z,1.13
2022-09-24T15:09:25.943Z,2.40
2022-09-24T15:11:55.300Z,1.50
2022-09-24T15:14:31.335Z,3.35
2022-09-24T15:17:10.883Z,1.90
2022-09-24T15:19:40.826Z,1.27
2022-09-24T15:22:09.761Z,1.50
2022-09-24T15:24:36.536Z,1.98
2022-09-24T15:27:15.766Z,2.00
2022-09-24T15:29:42.535Z,3.75
2022-09-24T15:32:17.336Z,1.60
2022-09-24T15:34:44.794Z,2.03
2022-09-24T15:37:17.938Z,3.90
2022-09-24T15:39:49.275Z,2.60
2022-09-24T15:42:22.225Z,1.83
2022-09-24T15:44:50.655Z,2.75
2022-09-24T15:47:18.545Z,2.70
2022-09-24T15:49:45.715Z,1.70
2022-09-24T15:52:25.239Z,1.95
2022-09-24T15:54:58.800Z,2.25
2022-09-24T15:57:28.255Z,2.65
2022-09-24T15:59:55.274Z,1.35
2022-09-24T16:02:28.526Z,1.70
2022-09-24T16:04:56.642Z,3.42
2022-09-24T16:07:26.379Z,2.13
2022-09-24T16:09:53.602Z,2.17
2022-09-24T16:12:20.895Z,1.88
2022-09-24T16:14:47.862Z,2.45
2022-09-24T16:17:14.652Z,2.03
2022-09-24T16:19:41.428Z,2.10
2022-09-24T16:22:08.196Z,1.58
2022-09-24T16:24:35.512Z,3.78
2022-09-24T16:27:02.641Z,1.85
2022-09-24T16:29:29.430Z,1.95
2022-09-24T16:31:56.207Z,2.70
2022-09-24T16:34:23.083Z,6.03
2022-09-24T16:36:49.852Z,2.40
2022-09-24T16:39:16.731Z,3.17
2022-09-24T16:41:44.352Z,4.88
2022-09-24T16:46:43.396Z,4.75
2022-09-24T16:49:11.416Z,5.32
2022-09-24T16:51:38.818Z,6.35
2022-09-24T16:54:06.093Z,3.88
2022-09-24T16:56:32.891Z,4.18
2022-09-24T16:58:59.800Z,4.60
2022-09-24T17:01:26.883Z,5.65
2022-09-24T17:03:58.785Z,3.63
2022-09-24T17:06:29.696Z,3.75
2022-09-24T17:09:15.336Z,2.58
2022-09-24T17:11:42.635Z,2.40
2022-09-24T17:14:13.602Z,3.03
2022-09-24T17:16:41.662Z,2.47
2022-09-24T17:19:10.634Z,2.60
2022-09-24T17:21:40.635Z,2.00
2022-09-24T17:24:08.707Z,1.85
2022-09-24T17:26:37.234Z,2.20
2022-09-24T17:29:04.416Z,5.30
2022-09-24T17:31:31.765Z,3.58
2022-09-24T17:34:06.170Z,3.38
2022-09-24T17:36:35.176Z,3.38
2022-09-24T17:39:02.815Z,3.08
2022-09-24T17:44:00.858Z,2.03
2022-09-24T17:46:31.135Z,2.65
2022-09-24T17:49:00.257Z,2.53
2022-09-24T17:51:33.405Z,3.38
2022-09-24T17:54:06.809Z,3.13
2022-09-24T17:56:38.699Z,3.60
2022-09-24T17:59:10.755Z,2.78
2022-09-24T18:01:40.325Z,2.55
2022-09-24T18:04:12.852Z,1.80
2022-09-24T18:06:42.238Z,2.00
2022-09-24T18:09:12.904Z,2.10
2022-09-24T18:11:48.074Z,2.72
2022-09-24T18:14:22.426Z,2.63
2022-09-24T18:16:50.294Z,4.22
2022-09-24T18:19:18.085Z,2.83
2022-09-24T18:21:48.300Z,4.82
2022-09-24T18:24:16.381Z,2.38
2022-09-24T18:26:43.731Z,8.32
2022-09-24T18:29:16.857Z,2.60
2022-09-24T18:31:45.055Z,2.35
2022-09-24T18:34:15.649Z,2.83
2022-09-24T18:36:45.117Z,2.70
2022-09-24T18:39:17.662Z,2.05
2022-09-24T18:41:47.052Z,3.45
2022-09-24T18:44:13.811Z,3.23
2022-09-24T18:46:41.252Z,3.93
2022-09-24T18:49:08.260Z,3.25
2022-09-24T18:51:37.628Z,4.38
2022-09-24T18:54:14.202Z,4.07
2022-09-24T18:56:43.378Z,3.42
2022-09-24T18:59:17.483Z,3.67
2022-09-24T19:01:46.813Z,3.42
2022-09-24T19:04:15.032Z,3.05
2022-09-24T19:06:45.794Z,2.85
2022-09-24T19:09:17.261Z,4.18
2022-09-24T19:11:45.425Z,3.70
2022-09-24T19:14:14.866Z,3.45
2022-09-24T19:16:41.690Z,4.78
2022-09-24T19:19:09.747Z,2.37
2022-09-24T19:21:37.429Z,3.10
2022-09-24T19:26:35.853Z,4.70
2022-09-24T19:29:04.364Z,3.55
2022-09-24T19:31:36.407Z,3.78
2022-09-24T19:34:06.870Z,5.30
2022-09-24T19:36:44.981Z,4.57
2022-09-24T19:39:15.861Z,4.00
2022-09-24T19:41:43.614Z,4.22
2022-09-24T19:44:11.411Z,4.07
2022-09-24T19:46:39.066Z,3.70
2022-09-24T19:49:06.233Z,4.45
2022-09-24T19:51:35.252Z,3.30
2022-09-24T19:54:08.319Z,4.00
2022-09-24T19:56:36.619Z,3.83
2022-09-24T19:59:05.428Z,2.45
2022-09-24T20:01:33.437Z,3.90
2022-09-24T20:04:06.606Z,7.43
2022-09-24T20:06:36.427Z,6.22
2022-09-24T20:09:04.084Z,2.83
2022-09-24T20:14:01.127Z,3.05
2022-09-24T20:16:33.195Z,3.83
2022-09-24T20:19:02.092Z,3.25
2022-09-24T20:21:34.422Z,4.75
2022-09-24T20:24:03.717Z,3.13
2022-09-24T20:26:49.738Z,3.33
2022-09-24T20:29:19.653Z,3.85
2022-09-24T20:31:53.025Z,4.63
2022-09-24T20:34:29.863Z,4.18
2022-09-24T20:37:01.534Z,5.32
2022-09-24T20:39:29.638Z,3.58
2022-09-24T20:42:01.605Z,6.97
2022-09-24T20:44:28.567Z,4.13
2022-09-24T20:46:57.207Z,4.75
2022-09-24T20:49:24.931Z,5.95
2022-09-24T20:54:25.878Z,4.85
2022-09-24T20:56:52.679Z,4.90
2022-09-24T20:59:19.694Z,7.40
2022-09-24T21:01:47.994Z,5.18
2022-09-24T21:04:14.883Z,4.05
2022-09-24T21:06:41.646Z,4.10
2022-09-24T21:09:08.643Z,4.97
2022-09-24T21:11:35.431Z,10.10
2022-09-24T21:14:02.889Z,3.87
2022-09-24T21:19:04.739Z,3.70
2022-09-24T21:21:36.495Z,3.55
2022-09-24T21:24:03.382Z,4.60
2022-09-24T21:26:33.225Z,5.30
2022-09-24T21:29:09.068Z,3.80
2022-09-24T21:31:38.794Z,4.38
2022-09-24T21:34:07.551Z,3.17
2022-09-24T21:36:44.554Z,3.03
2022-09-24T21:39:22.938Z,4.13
2022-09-24T21:41:51.261Z,4.10
2022-09-24T21:44:19.116Z,4.00
2022-09-24T21:46:47.249Z,3.45
2022-09-24T21:49:14.232Z,3.35
2022-09-24T21:51:41.873Z,3.90
2022-09-24T21:56:40.412Z,4.07
2022-09-24T21:59:27.509Z,4.03
2022-09-24T22:01:55.720Z,2.83
2022-09-24T22:04:23.073Z,3.25
2022-09-24T22:06:51.030Z,3.63
2022-09-24T22:09:19.256Z,4.53
2022-09-24T22:11:46.802Z,3.92
2022-09-24T22:14:14.134Z,2.63
2022-09-24T22:16:41.372Z,3.83
2022-09-24T22:19:09.320Z,3.35
2022-09-24T22:21:36.840Z,4.47
2022-09-24T22:24:05.000Z,3.53
2022-09-24T22:26:32.617Z,3.85
2022-09-24T22:31:27.795Z,4.88
2022-09-24T22:34:13.842Z,4.22
2022-09-24T22:36:41.085Z,4.78
2022-09-24T22:39:08.936Z,5.35
2022-09-24T22:41:39.789Z,3.42
2022-09-24T22:44:07.595Z,4.20
2022-09-24T22:46:36.408Z,4.55
2022-09-24T22:49:05.152Z,3.88
2022-09-24T22:51:33.441Z,3.95
2022-09-24T22:54:00.365Z,5.82
2022-09-24T22:56:28.466Z,3.15
2022-09-24T22:58:58.538Z,3.58
2022-09-24T23:01:31.769Z,3.70
2022-09-24T23:04:01.111Z,3.30
2022-09-24T23:06:28.390Z,3.95
2022-09-24T23:08:56.036Z,3.88
2022-09-24T23:14:00.492Z,3.30
2022-09-24T23:16:31.088Z,4.97
2022-09-24T23:19:01.258Z,3.85
2022-09-24T23:21:31.337Z,3.95
2022-09-24T23:24:04.826Z,3.75
2022-09-24T23:26:32.805Z,5.03
2022-09-24T23:29:00.960Z,5.65
2022-09-24T23:31:36.921Z,4.07
2022-09-24T23:34:07.461Z,2.72
2022-09-24T23:36:35.787Z,3.72
2022-09-24T23:39:04.410Z,4.47
2022-09-24T23:41:31.799Z,4.93
2022-09-24T23:44:00.146Z,3.13
2022-09-24T23:46:27.756Z,3.28
2022-09-24T23:51:22.566Z,2.85
2022-09-24T23:53:49.409Z,3.42
2022-09-24T23:56:16.274Z,3.07
2022-09-24T23:58:43.062Z,6.57
